createdAt,value
2023-03-12T00:01:40.867Z,-2.48
2023-03-12T00:04:10.915Z,-2.52
2023-03-12T00:06:40.992Z,-2.56
2023-03-12T00:09:11.186Z,-2.52
2023-03-12T00:11:41.179Z,-2.52
2023-03-12T00:14:11.437Z,-2.54
2023-03-12T00:16:41.495Z,-2.54
2023-03-12T00:19:13.645Z,-2.55
2023-03-12T00:21:43.662Z,-2.45
2023-03-12T00:24:14.339Z,-2.51
2023-03-12T00:26:44.694Z,-2.49
2023-03-12T00:29:14.940Z,-2.54
2023-03-12T00:31:45.483Z,-2.49
2023-03-12T00:34:18.374Z,-2.47
2023-03-12T00:36:48.407Z,-2.35
2023-03-12T00:39:18.441Z,-2.44
2023-03-12T00:41:48.454Z,-2.35
2023-03-12T00:44:18.626Z,-2.40
2023-03-12T00:46:48.676Z,-2.50
2023-03-12T00:49:19.208Z,-2.40
2023-03-12T00:51:49.202Z,-2.28
2023-03-12T00:54:19.231Z,-2.21
2023-03-12T00:56:50.179Z,-2.24
2023-03-12T00:59:20.212Z,-2.28
2023-03-12T01:01:50.273Z,-2.30
2023-03-12T01:04:20.580Z,-2.27
2023-03-12T01:06:50.668Z,-2.27
2023-03-12T01:09:19.592Z,-2.19
2023-03-12T01:11:47.474Z,-2.22
2023-03-12T01:14:15.905Z,-2.32
2023-03-12T01:16:44.424Z,-2.31
2023-03-12T01:19:13.367Z,-2.20
2023-03-12T01:21:43.413Z,-2.29
2023-03-12T01:24:13.457Z,-2.14
2023-03-12T01:26:43.508Z,-2.00
2023-03-12T01:29:13.568Z,-2.12
2023-03-12T01:31:43.585Z,-2.04
2023-03-12T01:34:13.962Z,-2.15
2023-03-12T01:36:42.693Z,-2.15
2023-03-12T01:39:10.524Z,-2.10
2023-03-12T01:41:38.877Z,-2.05
2023-03-12T01:44:15.110Z,-2.14
2023-03-12T01:46:46.225Z,-2.07
2023-03-12T01:49:34.296Z,-2.19
2023-03-12T01:52:15.241Z,-2.14
2023-03-12T01:55:22.388Z,-1.93
2023-03-12T01:57:58.817Z,-1.88
2023-03-12T02:00:29.015Z,-1.77
2023-03-12T02:03:08.944Z,-1.79
2023-03-12T02:05:55.266Z,-1.85
2023-03-12T02:08:26.900Z,-1.78
2023-03-12T02:10:56.956Z,-1.80
2023-03-12T02:13:28.063Z,-1.66
2023-03-12T02:15:58.340Z,-1.75
2023-03-12T02:18:29.274Z,-1.59
2023-03-12T02:21:18.396Z,-1.67
2023-03-12T02:24:21.436Z,-1.58
2023-03-12T02:26:50.955Z,-1.53
2023-03-12T02:29:19.397Z,-1.53
2023-03-12T02:32:00.307Z,-1.47
2023-03-12T02:34:30.532Z,-1.39
2023-03-12T02:36:59.748Z,-1.39
2023-03-12T02:39:29.728Z,-1.27
2023-03-12T02:42:00.970Z,-1.16
2023-03-12T02:44:36.520Z,-1.16
2023-03-12T02:47:05.370Z,-1.18
2023-03-12T02:49:35.847Z,-1.20
2023-03-12T02:52:05.877Z,-1.09
2023-03-12T02:54:35.628Z,-0.99
2023-03-12T02:57:05.696Z,-1.06
2023-03-12T02:59:35.524Z,-1.04
2023-03-12T03:02:06.995Z,-0.97
2023-03-12T03:04:35.748Z,-0.99
2023-03-12T03:07:06.051Z,-0.91
2023-03-12T03:09:35.927Z,-0.94
2023-03-12T03:12:10.242Z,-1.00
2023-03-12T03:14:39.610Z,-1.05
2023-03-12T03:17:09.451Z,-1.16
2023-03-12T03:19:39.186Z,-1.33
2023-03-12T03:22:09.036Z,-1.46
2023-03-12T03:24:38.676Z,-1.38
2023-03-12T03:27:09.072Z,-1.37
2023-03-12T03:29:38.756Z,-1.53
2023-03-12T03:32:08.875Z,-1.63
2023-03-12T03:34:39.112Z,-1.74
2023-03-12T03:37:09.191Z,-1.74
2023-03-12T03:39:38.975Z,-1.77
2023-03-12T03:42:13.013Z,-1.81
2023-03-12T03:44:43.128Z,-1.85
2023-03-12T03:47:12.790Z,-1.86
2023-03-12T03:49:42.539Z,-1.79
2023-03-12T03:52:12.232Z,-1.93
2023-03-12T03:54:42.075Z,-1.87
2023-03-12T03:57:11.898Z,-1.92
2023-03-12T03:59:41.537Z,-2.03
2023-03-12T04:02:11.334Z,-2.15
2023-03-12T04:04:41.196Z,-2.16
2023-03-12T04:07:09.697Z,-2.08
2023-03-12T04:09:38.413Z,-2.11
2023-03-12T04:12:13.102Z,-2.17
2023-03-12T04:14:43.105Z,-2.26
2023-03-12T04:17:13.266Z,-2.34
2023-03-12T04:19:43.235Z,-2.39
2023-03-12T04:22:13.678Z,-2.36
2023-03-12T04:24:43.370Z,-2.32
2023-03-12T04:27:13.297Z,-2.38
2023-03-12T04:29:43.516Z,-2.35
2023-03-12T04:32:13.187Z,-2.42
2023-03-12T04:34:41.921Z,-2.47
2023-03-12T04:37:16.274Z,-2.52
2023-03-12T04:39:46.406Z,-2.46
2023-03-12T04:42:16.140Z,-2.32
2023-03-12T04:44:45.921Z,-2.30
2023-03-12T04:47:15.704Z,-2.27
2023-03-12T04:49:45.742Z,-2.41
2023-03-12T04:52:17.652Z,-2.50
2023-03-12T04:54:47.944Z,-2.46
2023-03-12T04:57:18.254Z,-2.55
2023-03-12T04:59:48.367Z,-2.62
2023-03-12T05:02:17.795Z,-2.68
2023-03-12T05:04:47.590Z,-2.59
2023-03-12T05:07:18.058Z,-2.71
2023-03-12T05:09:48.038Z,-2.80
2023-03-12T05:12:17.954Z,-2.91
2023-03-12T05:14:47.926Z,-2.97
2023-03-12T05:17:17.743Z,-3.04
2023-03-12T05:19:47.511Z,-3.13
2023-03-12T05:22:18.724Z,-3.21
2023-03-12T05:24:47.767Z,-3.29
2023-03-12T05:27:18.014Z,-3.37
2023-03-12T05:29:47.851Z,-3.38
2023-03-12T05:32:17.676Z,-3.41
2023-03-12T05:34:47.510Z,-3.45
2023-03-12T05:37:16.027Z,-3.50
2023-03-12T05:39:46.927Z,-3.56
2023-03-12T05:42:19.342Z,-3.60
2023-03-12T05:44:48.825Z,-3.65
2023-03-12T05:47:19.850Z,-3.68
2023-03-12T05:49:49.108Z,-3.73
2023-03-12T05:52:18.754Z,-3.75
2023-03-12T05:54:48.644Z,-3.76
2023-03-12T05:57:18.301Z,-3.76
2023-03-12T05:59:48.142Z,-3.75
2023-03-12T06:02:17.948Z,-3.72
2023-03-12T06:04:47.772Z,-3.70
2023-03-12T06:07:17.480Z,-3.65
2023-03-12T06:09:47.420Z,-3.59
2023-03-12T06:12:17.145Z,-3.54
2023-03-12T06:14:46.949Z,-3.48
2023-03-12T06:17:16.914Z,-3.35
2023-03-12T06:19:51.575Z,-3.24
2023-03-12T06:22:20.320Z,-3.13
2023-03-12T06:24:49.552Z,-3.07
2023-03-12T06:27:18.145Z,-3.00
2023-03-12T06:29:47.327Z,-2.91
2023-03-12T06:32:18.581Z,-2.83
2023-03-12T06:34:47.925Z,-2.70
2023-03-12T06:37:17.990Z,-2.57
2023-03-12T06:39:47.907Z,-2.49
2023-03-12T06:42:18.609Z,-2.34
2023-03-12T06:44:50.336Z,-2.21
2023-03-12T06:47:19.904Z,-2.09
2023-03-12T06:49:49.353Z,-1.86
2023-03-12T06:52:19.152Z,-1.75
2023-03-12T06:54:49.013Z,-1.56
2023-03-12T06:57:18.846Z,-1.15
2023-03-12T06:59:50.534Z,-1.23
2023-03-12T07:02:19.055Z,-1.24
2023-03-12T07:04:48.850Z,-1.23
2023-03-12T07:07:20.139Z,-1.14
2023-03-12T07:09:49.402Z,-1.01
2023-03-12T07:12:19.222Z,-0.84
2023-03-12T07:14:48.986Z,-0.73
2023-03-12T07:17:18.773Z,-0.59
2023-03-12T07:19:49.842Z,-0.42
2023-03-12T07:22:18.860Z,-0.44
2023-03-12T07:24:48.461Z,-0.14
2023-03-12T07:27:19.083Z,0.04
2023-03-12T07:29:48.567Z,0.27
2023-03-12T07:32:18.809Z,0.55
2023-03-12T07:34:48.583Z,0.81
2023-03-12T07:37:18.552Z,0.89
2023-03-12T07:39:52.325Z,0.78
2023-03-12T07:42:22.185Z,1.01
2023-03-12T07:44:52.002Z,0.95
2023-03-12T07:47:23.942Z,0.83
2023-03-12T07:49:54.038Z,0.87
2023-03-12T07:52:23.830Z,0.68
2023-03-12T07:54:52.870Z,0.48
2023-03-12T07:57:20.601Z,0.47
2023-03-12T07:59:48.982Z,0.44
2023-03-12T08:02:17.346Z,0.39
2023-03-12T08:04:45.626Z,0.63
2023-03-12T08:07:15.576Z,1.29
2023-03-12T08:09:45.881Z,1.78
2023-03-12T08:12:15.940Z,2.34
2023-03-12T08:14:46.748Z,2.54
2023-03-12T08:17:17.482Z,2.43
2023-03-12T08:19:47.058Z,2.55
2023-03-12T08:22:14.791Z,2.94
2023-03-12T08:24:44.235Z,3.03
2023-03-12T08:27:14.432Z,3.27
2023-03-12T08:29:43.178Z,3.28
2023-03-12T08:32:11.681Z,3.69
2023-03-12T08:34:40.214Z,3.87
2023-03-12T08:37:09.858Z,4.07
2023-03-12T08:39:39.775Z,4.28
2023-03-12T08:42:13.664Z,4.16
2023-03-12T08:44:41.068Z,3.66
2023-03-12T08:47:10.745Z,3.85
2023-03-12T08:49:40.620Z,4.62
2023-03-12T08:52:10.586Z,4.31
2023-03-12T08:54:40.644Z,4.28
2023-03-12T08:57:10.691Z,4.64
2023-03-12T08:59:40.767Z,5.01
2023-03-12T09:02:13.010Z,5.29
2023-03-12T09:04:42.190Z,5.10
2023-03-12T09:07:13.175Z,5.35
2023-03-12T09:09:41.733Z,5.50
2023-03-12T09:12:17.725Z,5.67
2023-03-12T09:15:03.739Z,5.68
2023-03-12T09:17:34.537Z,5.95
2023-03-12T09:20:08.522Z,6.10
2023-03-12T09:22:38.633Z,6.36
2023-03-12T09:25:11.469Z,6.25
2023-03-12T09:27:47.982Z,6.21
2023-03-12T09:30:21.874Z,6.05
2023-03-12T09:32:50.075Z,5.59
2023-03-12T09:35:20.065Z,5.60
2023-03-12T09:37:51.434Z,4.72
2023-03-12T09:40:29.597Z,5.23
2023-03-12T09:43:25.922Z,6.24
2023-03-12T09:45:57.439Z,6.19
2023-03-12T09:48:37.817Z,6.19
2023-03-12T09:51:28.471Z,6.42
2023-03-12T09:54:07.796Z,6.32
2023-03-12T09:56:38.746Z,5.79
2023-03-12T09:59:14.616Z,6.71
2023-03-12T10:02:15.685Z,7.08
2023-03-12T10:05:12.605Z,6.85
2023-03-12T10:08:31.746Z,6.66
2023-03-12T10:11:36.616Z,6.55
2023-03-12T10:14:31.711Z,6.13
2023-03-12T10:17:47.124Z,5.95
2023-03-12T10:20:37.746Z,6.43
2023-03-12T10:23:54.291Z,6.75
2023-03-12T10:26:29.382Z,6.60
2023-03-12T10:29:31.900Z,6.98
2023-03-12T10:32:38.294Z,6.84
2023-03-12T10:35:24.351Z,7.10
2023-03-12T10:38:04.724Z,7.30
2023-03-12T10:40:38.707Z,7.19
2023-03-12T10:43:07.417Z,6.45
2023-03-12T10:45:48.038Z,6.75
2023-03-12T10:48:26.334Z,7.22
2023-03-12T10:51:10.283Z,7.26
2023-03-12T10:53:47.855Z,7.38
2023-03-12T10:56:21.404Z,7.22
2023-03-12T10:58:54.176Z,6.90
2023-03-12T11:01:31.830Z,7.34
2023-03-12T11:04:32.166Z,7.68
2023-03-12T11:07:21.270Z,7.69
2023-03-12T11:10:18.761Z,8.05
2023-03-12T11:13:36.428Z,7.72
2023-03-12T11:16:31.539Z,7.51
2023-03-12T11:19:06.453Z,7.51
2023-03-12T11:21:38.298Z,7.63
2023-03-12T11:24:16.199Z,7.13
2023-03-12T11:27:28.505Z,6.57
2023-03-12T11:29:56.544Z,6.19
2023-03-12T11:32:51.135Z,6.01
2023-03-12T11:35:51.177Z,6.36
2023-03-12T11:38:51.021Z,6.37
2023-03-12T11:42:18.416Z,6.05
2023-03-12T11:45:26.265Z,6.69
2023-03-12T11:48:34.404Z,6.55
2023-03-12T11:51:41.618Z,6.39
2023-03-12T11:54:35.423Z,5.66
2023-03-12T11:58:06.054Z,6.04
2023-03-12T12:00:53.216Z,6.07
2023-03-12T12:03:47.675Z,5.44
2023-03-12T12:06:54.228Z,6.20
2023-03-12T12:09:46.695Z,5.80
2023-03-12T12:12:54.358Z,5.62
2023-03-12T12:15:54.275Z,5.69
2023-03-12T12:19:05.726Z,5.98
2023-03-12T12:22:03.367Z,6.35
2023-03-12T12:25:14.630Z,6.20
2023-03-12T12:28:32.732Z,6.26
2023-03-12T12:31:32.783Z,6.29
2023-03-12T12:34:24.170Z,5.95
2023-03-12T12:37:33.684Z,6.15
2023-03-12T12:40:20.753Z,6.40
2023-03-12T12:43:42.134Z,6.26
2023-03-12T12:46:20.014Z,6.51
2023-03-12T12:48:57.600Z,6.27
2023-03-12T12:51:50.233Z,6.15
2023-03-12T12:54:42.260Z,5.93
2023-03-12T12:57:50.610Z,5.81
2023-03-12T13:00:58.874Z,5.49
2023-03-12T13:03:30.909Z,5.99
2023-03-12T13:06:06.536Z,5.90
2023-03-12T13:08:44.859Z,5.59
2023-03-12T13:11:19.303Z,5.32
2023-03-12T13:14:05.485Z,5.41
2023-03-12T13:16:48.861Z,5.59
2023-03-12T13:19:16.081Z,5.95
2023-03-12T13:22:41.803Z,5.85
2023-03-12T13:26:02.182Z,5.66
2023-03-12T13:29:09.721Z,5.81
2023-03-12T13:31:43.688Z,5.66
2023-03-12T13:34:19.357Z,5.55
2023-03-12T13:36:59.942Z,5.28
2023-03-12T13:39:36.291Z,5.39
2023-03-12T13:42:41.944Z,5.08
2023-03-12T13:45:31.162Z,4.90
2023-03-12T13:48:06.376Z,5.07
2023-03-12T13:50:57.016Z,4.76
2023-03-12T13:53:38.662Z,5.03
2023-03-12T13:56:19.370Z,4.93
2023-03-12T13:59:18.124Z,4.65
2023-03-12T14:02:00.419Z,4.55
2023-03-12T14:04:41.226Z,4.24
2023-03-12T14:08:07.551Z,4.41
2023-03-12T14:11:13.238Z,4.30
2023-03-12T14:14:48.384Z,4.62
2023-03-12T14:17:31.114Z,5.01
2023-03-12T14:20:23.259Z,5.24
2023-03-12T14:23:06.150Z,5.18
2023-03-12T14:25:48.387Z,5.06
2023-03-12T14:28:24.268Z,4.87
2023-03-12T14:31:08.835Z,5.17
2023-03-12T14:34:00.653Z,5.08
2023-03-12T14:37:05.866Z,4.85
2023-03-12T14:39:51.030Z,4.61
2023-03-12T14:42:33.957Z,4.63
2023-03-12T14:45:06.732Z,4.55
2023-03-12T14:47:57.936Z,4.56
2023-03-12T14:50:39.148Z,4.26
2023-03-12T14:53:32.266Z,4.19
2023-03-12T14:56:15.017Z,4.27
2023-03-12T14:58:50.152Z,4.43
2023-03-12T15:01:32.765Z,4.36
2023-03-12T15:04:18.246Z,4.12
2023-03-12T15:07:06.591Z,4.06
2023-03-12T15:09:37.562Z,4.05
2023-03-12T15:12:35.241Z,4.15
2023-03-12T15:15:46.015Z,4.10
2023-03-12T15:18:33.379Z,3.93
2023-03-12T15:21:04.616Z,3.98
2023-03-12T15:23:40.582Z,4.09
2023-03-12T15:26:29.020Z,4.11
2023-03-12T15:29:30.406Z,3.79
2023-03-12T15:32:03.569Z,3.76
2023-03-12T15:34:39.821Z,3.70
2023-03-12T15:37:43.088Z,3.45
2023-03-12T15:40:32.207Z,3.59
2023-03-12T15:43:03.423Z,3.44
2023-03-12T15:45:41.109Z,3.56
2023-03-12T15:48:41.276Z,3.46
2023-03-12T15:51:40.596Z,3.44
2023-03-12T15:54:16.407Z,3.45
2023-03-12T15:56:46.638Z,3.44
2023-03-12T15:59:16.681Z,3.42
2023-03-12T16:01:53.294Z,3.38
2023-03-12T16:04:24.772Z,3.23
2023-03-12T16:06:54.018Z,3.33
2023-03-12T16:09:29.364Z,3.39
2023-03-12T16:11:57.725Z,3.46
2023-03-12T16:14:36.392Z,3.55
2023-03-12T16:17:17.861Z,3.48
2023-03-12T16:19:47.938Z,3.47
2023-03-12T16:22:20.314Z,3.36
2023-03-12T16:24:50.371Z,3.12
2023-03-12T16:27:31.632Z,3.03
2023-03-12T16:30:02.526Z,2.92
2023-03-12T16:32:32.658Z,2.74
2023-03-12T16:35:18.741Z,2.76
2023-03-12T16:37:49.100Z,2.81
2023-03-12T16:40:32.592Z,2.79
2023-03-12T16:43:16.313Z,2.45
2023-03-12T16:45:49.700Z,2.41
2023-03-12T16:48:24.501Z,2.43
2023-03-12T16:50:58.930Z,2.52
2023-03-12T16:53:29.314Z,2.51
2023-03-12T16:56:02.528Z,2.51
2023-03-12T16:58:33.362Z,2.47
2023-03-12T17:01:03.639Z,2.39
2023-03-12T17:03:39.000Z,2.35
2023-03-12T17:06:27.765Z,2.34
2023-03-12T17:08:57.535Z,2.49
2023-03-12T17:11:35.221Z,2.51
2023-03-12T17:14:22.526Z,2.55
2023-03-12T17:16:52.001Z,2.49
2023-03-12T17:19:20.373Z,2.67
2023-03-12T17:21:50.303Z,2.75
2023-03-12T17:24:20.453Z,2.43
2023-03-12T17:26:52.014Z,2.39
2023-03-12T17:29:22.301Z,2.37
2023-03-12T17:31:52.644Z,2.43
2023-03-12T17:34:22.757Z,2.47
2023-03-12T17:36:52.839Z,2.35
2023-03-12T17:39:24.087Z,2.24
2023-03-12T17:41:54.295Z,2.13
2023-03-12T17:44:24.534Z,2.05
2023-03-12T17:46:59.708Z,1.92
2023-03-12T17:49:30.065Z,1.87
2023-03-12T17:52:03.556Z,1.85
2023-03-12T17:54:33.716Z,1.80
2023-03-12T17:57:03.887Z,1.68
2023-03-12T17:59:33.941Z,1.59
2023-03-12T18:02:04.656Z,1.71
2023-03-12T18:04:35.174Z,1.92
2023-03-12T18:07:05.549Z,1.70
2023-03-12T18:09:36.289Z,1.76
2023-03-12T18:12:12.389Z,1.89
2023-03-12T18:14:42.903Z,1.78
2023-03-12T18:17:13.035Z,1.94
2023-03-12T18:19:43.162Z,1.88
2023-03-12T18:22:14.667Z,1.76
2023-03-12T18:24:44.844Z,1.67
2023-03-12T18:27:15.020Z,1.76
2023-03-12T18:29:45.072Z,1.68
2023-03-12T18:32:15.249Z,1.80
2023-03-12T18:34:45.374Z,2.16
2023-03-12T18:37:15.791Z,1.93
2023-03-12T18:39:47.415Z,1.87
2023-03-12T18:42:18.080Z,1.90
2023-03-12T18:44:48.187Z,1.80
2023-03-12T18:47:19.542Z,1.69
2023-03-12T18:49:53.123Z,1.74
2023-03-12T18:52:21.127Z,1.82
2023-03-12T18:54:49.494Z,1.86
2023-03-12T18:57:17.848Z,1.92
2023-03-12T18:59:47.284Z,1.80
2023-03-12T19:02:15.160Z,1.81
2023-03-12T19:04:43.060Z,1.88
2023-03-12T19:07:11.701Z,1.91
2023-03-12T19:09:40.002Z,1.93
2023-03-12T19:12:14.384Z,1.89
2023-03-12T19:14:44.880Z,1.86
2023-03-12T19:17:13.282Z,1.88
2023-03-12T19:19:41.951Z,2.01
2023-03-12T19:22:10.265Z,2.02
2023-03-12T19:24:38.833Z,1.92
2023-03-12T19:27:07.441Z,1.94
2023-03-12T19:29:35.980Z,1.95
2023-03-12T19:32:04.568Z,1.83
2023-03-12T19:34:32.865Z,1.94
2023-03-12T19:37:01.170Z,1.77
2023-03-12T19:39:29.571Z,1.76
2023-03-12T19:41:59.326Z,1.83
2023-03-12T19:44:26.529Z,1.79
2023-03-12T19:46:55.363Z,2.01
2023-03-12T19:49:24.289Z,1.90
2023-03-12T19:51:52.180Z,1.92
2023-03-12T19:54:20.928Z,1.96
2023-03-12T19:56:49.330Z,1.89
2023-03-12T19:59:18.693Z,1.81
2023-03-12T20:01:46.473Z,2.09
2023-03-12T20:04:15.028Z,2.05
2023-03-12T20:06:43.415Z,2.15
2023-03-12T20:09:11.305Z,2.10
2023-03-12T20:11:41.497Z,2.12
2023-03-12T20:14:09.769Z,2.21
2023-03-12T20:16:38.620Z,2.20
2023-03-12T20:19:06.729Z,2.27
2023-03-12T20:21:35.255Z,2.30
2023-03-12T20:24:05.163Z,2.35
2023-03-12T20:26:32.818Z,2.35
2023-03-12T20:29:02.804Z,2.44
2023-03-12T20:31:33.825Z,2.35
2023-03-12T20:34:01.388Z,2.38
2023-03-12T20:36:29.604Z,2.38
2023-03-12T20:38:58.158Z,2.39
2023-03-12T20:41:26.776Z,2.46
2023-03-12T20:43:57.750Z,2.52
2023-03-12T20:46:27.937Z,2.57
2023-03-12T20:48:58.003Z,2.55
2023-03-12T20:51:28.161Z,2.57
2023-03-12T20:53:58.391Z,2.44
2023-03-12T20:56:28.424Z,2.40
2023-03-12T20:58:59.546Z,2.43
2023-03-12T21:01:28.968Z,2.51
2023-03-12T21:03:59.469Z,2.50
2023-03-12T21:06:29.740Z,2.51
2023-03-12T21:08:59.823Z,2.68
2023-03-12T21:11:31.344Z,2.60
2023-03-12T21:14:00.761Z,2.81
2023-03-12T21:16:30.838Z,2.78
2023-03-12T21:19:01.121Z,2.83
2023-03-12T21:21:35.262Z,2.78
2023-03-12T21:24:02.579Z,2.77
2023-03-12T21:26:31.012Z,2.86
2023-03-12T21:28:59.433Z,2.97
2023-03-12T21:31:28.036Z,3.11
2023-03-12T21:33:58.165Z,3.16
2023-03-12T21:36:28.042Z,3.09
2023-03-12T21:38:56.252Z,3.14
2023-03-12T21:41:24.910Z,3.21
2023-03-12T21:43:53.192Z,3.26
2023-03-12T21:46:24.924Z,3.27
2023-03-12T21:48:55.138Z,3.22
2023-03-12T21:51:26.204Z,3.25
2023-03-12T21:53:58.875Z,3.43
2023-03-12T21:56:30.354Z,3.46
2023-03-12T21:59:00.611Z,3.50
2023-03-12T22:01:30.684Z,3.51
2023-03-12T22:04:01.599Z,3.53
2023-03-12T22:06:32.690Z,3.52
2023-03-12T22:09:03.149Z,3.62
2023-03-12T22:11:33.277Z,3.61
2023-03-12T22:14:03.649Z,3.70
2023-03-12T22:16:33.892Z,3.72
2023-03-12T22:19:04.025Z,3.74
2023-03-12T22:21:34.122Z,3.82
2023-03-12T22:24:04.548Z,3.72
2023-03-12T22:26:35.020Z,3.73
2023-03-12T22:29:07.012Z,3.76
2023-03-12T22:31:37.265Z,3.80
2023-03-12T22:34:07.495Z,3.78
2023-03-12T22:36:40.123Z,3.83
2023-03-12T22:39:10.163Z,3.91
2023-03-12T22:41:40.185Z,3.85
2023-03-12T22:44:11.441Z,3.84
2023-03-12T22:46:39.767Z,3.99
2023-03-12T22:49:07.288Z,4.17
2023-03-12T22:51:37.470Z,4.05
2023-03-12T22:54:07.369Z,4.14
2023-03-12T22:56:37.555Z,4.08
2023-03-12T22:59:07.585Z,3.99
2023-03-12T23:01:37.694Z,4.10
2023-03-12T23:04:07.991Z,4.23
2023-03-12T23:06:38.034Z,4.14
2023-03-12T23:09:08.060Z,4.17
2023-03-12T23:11:40.564Z,4.11
2023-03-12T23:14:10.422Z,4.15
2023-03-12T23:16:40.524Z,4.20
2023-03-12T23:19:10.592Z,4.22
2023-03-12T23:21:42.195Z,4.43
2023-03-12T23:24:11.633Z,4.44
2023-03-12T23:26:43.648Z,4.44
2023-03-12T23:29:13.227Z,4.40
2023-03-12T23:31:41.515Z,4.39
2023-03-12T23:34:10.344Z,4.55
2023-03-12T23:36:38.326Z,4.47
2023-03-12T23:39:06.764Z,4.61
2023-03-12T23:41:35.110Z,4.56
2023-03-12T23:44:04.200Z,4.45
2023-03-12T23:46:32.695Z,4.58
2023-03-12T23:49:00.739Z,4.44
2023-03-12T23:51:33.290Z,4.48
2023-03-12T23:54:08.148Z,4.71
2023-03-12T23:56:41.138Z,4.61
2023-03-12T23:59:11.078Z,4.63
